Bw Prince — LADQ7 — position and weather

sailwx.info

Track history (hours):
 
Tides and Currents Weather Stations Pressure Air Temp Water Temp Dewpoint Dewpoint Depression Visibility Wind Speed Wind Dir Waves Ship Positions

Bw Prince

Last reported at 2016-Jul-01 15:12 UTC. Time now 2016-Jul-24 08:47 UTC.
Position N 29°25' W 094°50'.
Warning: this ship's position is 22 days out of date.

Length 225 m; draft 12 m.

Type: Tanker. MMSI: 259708000.

Date/timePositionNaut miles runAvg speedWind from/ knotsBaromVisibWave heightAir tempDewpointWater temp
2016-Jul-01 15:12N 29°25' W 094°50'711.5
2016-Jul-01 14:33N 29°32' W 094°53'1010.2
2016-Jul-01 13:34N 29°41' W 094°59'8 7.6
2016-Jul-01 12:33N 29°46' W 095°05'5 5.1
2016-Jul-01 11:30N 29°45' W 095°11'  
2016-Jun-27 16:10N 29°44' W 095°12'1 1.8
2016-Jun-27 15:30N 29°45' W 095°11'5 5.4
2016-Jun-27 14:33N 29°46' W 095°05'8 7.7
2016-Jun-27 13:33N 29°41' W 094°59'1212.2
2016-Jun-27 12:33N 29°30' W 094°52'22 4.3
2016-Jun-27 07:26N 29°17' W 094°31'0 0.0
2016-Jun-27 06:32N 29°17' W 094°31'  
Track history (hours):
 
Tides and Currents Weather Stations Pressure Air Temp Water Temp Dewpoint Dewpoint Depression Visibility Wind Speed Wind Dir Waves Ship Positions

Bw Prince

Last reported at 2016-Jul-01 15:12 UTC. Time now 2016-Jul-24 08:47 UTC.
Position N 29°25' W 094°50'.
Warning: this ship's position is 22 days out of date.

Length 225 m; draft 12 m.

Type: Tanker. MMSI: 259708000.

Date/timePositionNaut miles runAvg speedWind from/ knotsBaromVisibWave heightAir tempDewpointWater temp
2016-Jul-01 15:12N 29°25' W 094°50'711.5
2016-Jul-01 14:33N 29°32' W 094°53'1010.2
2016-Jul-01 13:34N 29°41' W 094°59'8 7.6
2016-Jul-01 12:33N 29°46' W 095°05'5 5.1
2016-Jul-01 11:30N 29°45' W 095°11'  
2016-Jun-27 16:10N 29°44' W 095°12'1 1.8
2016-Jun-27 15:30N 29°45' W 095°11'5 5.4
2016-Jun-27 14:33N 29°46' W 095°05'8 7.7
2016-Jun-27 13:33N 29°41' W 094°59'1212.2
2016-Jun-27 12:33N 29°30' W 094°52'22 4.3
2016-Jun-27 07:26N 29°17' W 094°31'0 0.0
2016-Jun-27 06:32N 29°17' W 094°31'  

Dump ship's entire track history